Time;durP1;ratioP1;P1;durP2;ratioP2;P2;SDS_P1;SDS_P2;PMS_P1;PMS_P2;Temp;Humidity;BMP_temperature;BMP_pressure;BME280_temperature;BME280_humidity;BME280_pressure;Samples;Min_cycle;Max_cycle;Signal;HPM_P1;HPM_P2
2022/01/09 00:00:39;;;;;;;;;;;0.60;99.90;;;;;;5033746;28;19924;-72
2022/01/09 00:03:10;;;;;;;;;;;0.70;99.90;;;;;;5050551;28;19920;-72
2022/01/09 00:05:42;;;;;;;;;;;0.70;99.90;;;;;;5032972;28;20392;-72
2022/01/09 00:08:09;;;;;;;;;;;0.70;99.90;;;;;;5051120;28;19921;-73
2022/01/09 00:10:36;;;;;;;;;;;0.70;99.90;;;;;;5032656;28;19928;-72
2022/01/09 00:13:08;;;;;;;;;;;0.70;99.90;;;;;;5052363;28;20019;-72
2022/01/09 00:15:40;;;;;;;;;;;0.80;99.90;;;;;;5036818;28;19942;-72
2022/01/09 00:18:08;;;;;;;;;;;0.80;99.90;;;;;;5036812;28;20373;-72
2022/01/09 00:20:35;;;;;;;;;;;0.80;99.90;;;;;;5036540;28;20356;-72
2022/01/09 00:23:03;;;;;;;;;;;0.80;99.90;;;;;;5054197;28;19963;-72
2022/01/09 00:25:34;;;;;;;;;;;0.80;99.90;;;;;;5037567;28;20278;-72
2022/01/09 00:28:02;;;;;;;;;;;0.80;99.90;;;;;;5036481;28;20000;-71
2022/01/09 00:30:30;;;;;;;;;;;0.80;99.90;;;;;;5020194;28;20417;-72
2022/01/09 00:32:58;;;;;;;;;;;0.90;99.90;;;;;;5036157;28;20397;-72
2022/01/09 00:35:30;;;;;;;;;;;0.90;99.90;;;;;;5036583;28;20024;-72
2022/01/09 00:37:59;;;;;;;;;;;0.90;99.90;;;;;;5036998;28;19921;-72
2022/01/09 00:40:30;;;;;;;;;;;1.00;99.90;;;;;;5037378;28;20377;-72
2022/01/09 00:42:57;;;;;;;;;;;1.00;99.90;;;;;;5035794;28;19991;-73
2022/01/09 00:45:29;;;;;;;;;;;1.10;99.90;;;;;;5020609;28;19927;-71
2022/01/09 00:48:00;;;;;;;;;;;1.20;99.90;;;;;;5035854;28;20024;-73
2022/01/09 00:50:27;;;;;;;;;;;1.30;99.90;;;;;;5034334;28;19924;-73
2022/01/09 00:52:54;;;;;;;;;;;1.30;99.90;;;;;;5048350;28;19996;-74
2022/01/09 00:55:20;;;;;;;;;;;1.40;99.90;;;;;;5035757;28;19996;-73
2022/01/09 00:57:52;;;;;;;;;;;1.40;99.90;;;;;;5053280;28;19920;-73
2022/01/09 01:00:19;;;;;;;;;;;1.40;99.90;;;;;;5035634;28;19960;-73
2022/01/09 01:02:45;;;;;;;;;;;1.30;99.90;;;;;;5035144;28;19927;-73
2022/01/09 01:05:12;;;;;;;;;;;1.30;99.90;;;;;;5020819;28;20020;-73
2022/01/09 01:07:39;;;;;;;;;;;1.30;99.90;;;;;;5004447;28;19975;-73
2022/01/09 01:10:06;;;;;;;;;;;1.30;99.90;;;;;;5035552;28;20019;-73
2022/01/09 01:12:37;;;;;;;;;;;1.30;99.90;;;;;;5024752;28;19921;-73
2022/01/09 01:15:04;;;;;;;;;;;1.30;99.90;;;;;;5034115;28;19948;-72
2022/01/09 01:17:32;;;;;;;;;;;1.30;99.90;;;;;;5017337;28;19971;-73
2022/01/09 01:20:04;;;;;;;;;;;1.30;99.90;;;;;;5034972;28;19927;-73
2022/01/09 01:22:32;;;;;;;;;;;1.30;99.90;;;;;;5050769;28;20007;-72
2022/01/09 01:25:05;;;;;;;;;;;1.30;99.90;;;;;;5018148;28;19920;-73
2022/01/09 01:27:37;;;;;;;;;;;1.30;99.90;;;;;;5019228;28;20468;-72
2022/01/09 01:30:05;;;;;;;;;;;1.30;99.90;;;;;;5035386;28;19951;-73
2022/01/09 01:32:37;;;;;;;;;;;1.30;99.90;;;;;;5018706;28;19946;-73
2022/01/09 01:35:04;;;;;;;;;;;1.30;99.90;;;;;;5035061;28;20015;-73
2022/01/09 01:37:30;;;;;;;;;;;1.20;99.90;;;;;;5034991;28;20044;-73
2022/01/09 01:39:57;;;;;;;;;;;1.20;99.90;;;;;;5034839;28;20023;-74
2022/01/09 01:42:29;;;;;;;;;;;1.20;99.90;;;;;;5018918;28;20015;-73
2022/01/09 01:44:55;;;;;;;;;;;1.20;99.90;;;;;;5034986;28;20023;-74
2022/01/09 01:47:22;;;;;;;;;;;1.30;99.90;;;;;;5034542;28;20007;-73
2022/01/09 01:49:49;;;;;;;;;;;1.40;99.90;;;;;;5052714;28;20354;-73
2022/01/09 01:52:17;;;;;;;;;;;1.50;99.90;;;;;;5034676;28;19921;-73
2022/01/09 01:54:44;;;;;;;;;;;1.60;99.90;;;;;;5034435;28;19927;-72
2022/01/09 01:57:11;;;;;;;;;;;1.60;99.90;;;;;;5034676;28;19924;-73
2022/01/09 01:59:43;;;;;;;;;;;1.70;99.90;;;;;;5034318;28;19927;-73
2022/01/09 02:02:10;;;;;;;;;;;1.80;99.90;;;;;;5034461;28;20020;-73
2022/01/09 02:04:41;;;;;;;;;;;1.90;99.90;;;;;;5035185;28;19927;-72
2022/01/09 02:07:08;;;;;;;;;;;1.90;99.90;;;;;;5034410;28;20015;-72
2022/01/09 02:09:40;;;;;;;;;;;1.90;99.90;;;;;;5018381;28;19921;-73
2022/01/09 02:12:12;;;;;;;;;;;1.90;99.90;;;;;;5035014;28;19951;-73
2022/01/09 02:14:46;;;;;;;;;;;2.00;99.90;;;;;;5034743;28;19927;-73
2022/01/09 02:17:21;;;;;;;;;;;2.00;99.90;;;;;;5051778;28;19924;-74
2022/01/09 02:19:56;;;;;;;;;;;2.10;99.90;;;;;;5034026;28;20023;-72
2022/01/09 02:22:31;;;;;;;;;;;2.10;99.90;;;;;;5051412;28;20005;-74
2022/01/09 02:24:58;;;;;;;;;;;2.10;99.90;;;;;;5017564;28;20019;-73
2022/01/09 02:27:24;;;;;;;;;;;2.10;99.90;;;;;;5051711;28;20011;-73
2022/01/09 02:29:56;;;;;;;;;;;2.10;99.90;;;;;;5034723;28;20730;-73
2022/01/09 02:32:28;;;;;;;;;;;2.00;99.90;;;;;;5034282;28;19931;-73
2022/01/09 02:35:00;;;;;;;;;;;2.10;99.90;;;;;;5033496;28;19920;-73
2022/01/09 02:37:31;;;;;;;;;;;2.10;99.90;;;;;;5034481;28;19920;-72
2022/01/09 02:40:04;;;;;;;;;;;2.10;99.90;;;;;;5034436;28;20019;-73
2022/01/09 02:42:36;;;;;;;;;;;2.10;99.90;;;;;;5051042;28;20031;-73
2022/01/09 02:45:08;;;;;;;;;;;2.10;99.90;;;;;;5051368;28;19959;-73
2022/01/09 02:47:39;;;;;;;;;;;2.10;99.90;;;;;;5033269;28;20377;-74
2022/01/09 02:50:17;;;;;;;;;;;2.10;99.90;;;;;;5033658;28;19948;-73
2022/01/09 02:53:14;;;;;;;;;;;2.10;99.90;;;;;;5031175;28;19971;-72
2022/01/09 02:55:41;;;;;;;;;;;2.10;99.90;;;;;;5016777;28;19928;-73
2022/01/09 02:58:08;;;;;;;;;;;2.10;99.90;;;;;;5016847;28;19956;-73
2022/01/09 03:00:42;;;;;;;;;;;2.10;99.90;;;;;;5051212;28;20016;-73
2022/01/09 03:03:14;;;;;;;;;;;2.20;99.90;;;;;;5032465;28;20003;-72
2022/01/09 03:05:45;;;;;;;;;;;2.20;99.90;;;;;;5051431;28;19948;-73
2022/01/09 03:08:17;;;;;;;;;;;2.20;99.90;;;;;;5032757;28;20396;-72
2022/01/09 03:10:49;;;;;;;;;;;2.20;99.90;;;;;;5050896;28;20273;-72
2022/01/09 03:13:21;;;;;;;;;;;2.30;99.90;;;;;;5033859;28;20588;-72
2022/01/09 03:15:52;;;;;;;;;;;2.40;99.90;;;;;;5051132;28;19925;-72
2022/01/09 03:18:19;;;;;;;;;;;2.60;99.90;;;;;;5033048;28;19921;-72
2022/01/09 03:20:51;;;;;;;;;;;2.60;99.90;;;;;;5033215;28;19920;-72
2022/01/09 03:23:22;;;;;;;;;;;2.70;99.90;;;;;;5017251;28;20692;-73
2022/01/09 03:25:54;;;;;;;;;;;2.70;99.90;;;;;;5050763;28;20015;-72
2022/01/09 03:28:21;;;;;;;;;;;2.70;99.90;;;;;;5032921;28;20015;-72
2022/01/09 03:30:52;;;;;;;;;;;2.80;99.90;;;;;;5032998;28;19920;-73
2022/01/09 03:33:24;;;;;;;;;;;2.90;99.90;;;;;;5032608;28;19927;-72
2022/01/09 03:35:51;;;;;;;;;;;3.00;99.90;;;;;;5050609;28;19921;-73
2022/01/09 03:38:23;;;;;;;;;;;3.00;99.90;;;;;;5050376;28;20472;-72
2022/01/09 03:40:54;;;;;;;;;;;3.10;99.90;;;;;;5050616;28;19931;-72
2022/01/09 03:43:21;;;;;;;;;;;3.20;99.90;;;;;;5032221;28;19920;-72
2022/01/09 03:45:53;;;;;;;;;;;3.20;99.90;;;;;;5032746;28;20000;-73
2022/01/09 03:48:24;;;;;;;;;;;3.20;99.90;;;;;;5035262;28;20365;-73
2022/01/09 03:50:51;;;;;;;;;;;3.30;99.90;;;;;;5037271;28;20456;-72
2022/01/09 03:53:18;;;;;;;;;;;3.30;99.90;;;;;;5036859;28;19927;-73
2022/01/09 03:55:50;;;;;;;;;;;3.40;99.90;;;;;;5021357;28;19925;-73
2022/01/09 03:58:17;;;;;;;;;;;3.40;99.90;;;;;;5055061;28;20393;-72
2022/01/09 04:00:49;;;;;;;;;;;3.40;99.90;;;;;;5038003;28;19931;-72
2022/01/09 04:03:20;;;;;;;;;;;3.40;99.90;;;;;;5054452;28;20024;-73
2022/01/09 04:05:52;;;;;;;;;;;3.30;99.90;;;;;;5037928;28;19921;-73
2022/01/09 04:08:24;;;;;;;;;;;3.30;99.90;;;;;;5036907;28;20007;-72
2022/01/09 04:10:50;;;;;;;;;;;3.30;99.90;;;;;;5054730;28;19920;-72
2022/01/09 04:13:24;;;;;;;;;;;3.40;99.90;;;;;;5021254;28;19924;-72
2022/01/09 04:15:51;;;;;;;;;;;3.40;99.90;;;;;;5054935;28;19921;-72
2022/01/09 04:18:23;;;;;;;;;;;3.50;99.90;;;;;;5021060;28;20011;-72
2022/01/09 04:20:50;;;;;;;;;;;3.40;99.90;;;;;;5054536;28;19921;-73
2022/01/09 04:23:18;;;;;;;;;;;3.40;99.90;;;;;;5036665;28;20015;-72
2022/01/09 04:25:50;;;;;;;;;;;3.40;99.90;;;;;;5021028;28;19927;-72
2022/01/09 04:28:22;;;;;;;;;;;3.40;99.90;;;;;;5036349;28;20324;-73
2022/01/09 04:30:49;;;;;;;;;;;3.40;99.90;;;;;;5036651;28;20377;-72
2022/01/09 04:33:21;;;;;;;;;;;3.40;99.90;;;;;;5036335;28;20023;-73
2022/01/09 04:35:52;;;;;;;;;;;3.40;99.90;;;;;;5020833;28;19927;-72
2022/01/09 04:38:19;;;;;;;;;;;3.50;99.90;;;;;;5036520;28;19942;-72
2022/01/09 04:40:46;;;;;;;;;;;3.50;99.90;;;;;;5019991;28;19920;-73
2022/01/09 04:43:18;;;;;;;;;;;3.50;99.90;;;;;;5036814;28;19920;-72
2022/01/09 04:45:46;;;;;;;;;;;3.50;99.90;;;;;;5019706;28;20019;-72
2022/01/09 04:48:17;;;;;;;;;;;3.50;99.90;;;;;;5036043;28;20296;-73
2022/01/09 04:50:45;;;;;;;;;;;3.50;99.90;;;;;;5036495;28;20453;-73
2022/01/09 04:53:12;;;;;;;;;;;3.50;99.90;;;;;;5019391;28;19967;-72
2022/01/09 04:55:49;;;;;;;;;;;3.50;99.90;;;;;;5054026;28;19927;-73
2022/01/09 04:58:21;;;;;;;;;;;3.60;99.90;;;;;;5036671;28;20015;-72
2022/01/09 05:00:48;;;;;;;;;;;3.50;99.90;;;;;;5053954;28;19921;-73
2022/01/09 05:03:15;;;;;;;;;;;3.60;99.90;;;;;;5053561;28;19936;-72
2022/01/09 05:05:46;;;;;;;;;;;3.60;99.90;;;;;;5053720;28;19943;-73
2022/01/09 05:08:13;;;;;;;;;;;3.60;99.90;;;;;;5019518;28;19963;-73
2022/01/09 05:10:45;;;;;;;;;;;3.60;99.90;;;;;;5053778;28;20304;-72
2022/01/09 05:13:11;;;;;;;;;;;3.60;99.90;;;;;;5053159;28;20033;-72
2022/01/09 05:15:43;;;;;;;;;;;3.70;99.90;;;;;;5035853;28;19920;-72
2022/01/09 05:18:15;;;;;;;;;;;3.70;99.90;;;;;;5035799;28;20022;-72
2022/01/09 05:20:42;;;;;;;;;;;3.70;99.90;;;;;;5035555;28;19927;-72
2022/01/09 05:23:09;;;;;;;;;;;3.70;99.90;;;;;;5035123;28;19960;-71
2022/01/09 05:25:36;;;;;;;;;;;3.60;99.90;;;;;;5035395;28;20019;-72
2022/01/09 05:28:03;;;;;;;;;;;3.70;99.90;;;;;;5035379;28;20440;-72
2022/01/09 05:30:35;;;;;;;;;;;3.60;99.90;;;;;;5035643;28;19967;-72
2022/01/09 05:33:01;;;;;;;;;;;3.60;99.90;;;;;;5035192;28;20008;-73
2022/01/09 05:35:34;;;;;;;;;;;3.70;99.90;;;;;;5035794;28;19921;-72
2022/01/09 05:38:05;;;;;;;;;;;3.70;99.90;;;;;;5035194;28;19920;-72
2022/01/09 05:40:32;;;;;;;;;;;3.60;99.90;;;;;;5035028;28;20015;-72
2022/01/09 05:43:04;;;;;;;;;;;3.60;99.90;;;;;;5035930;28;19921;-72
2022/01/09 05:45:30;;;;;;;;;;;3.60;99.90;;;;;;5053124;28;19921;-72
2022/01/09 05:47:59;;;;;;;;;;;3.60;99.90;;;;;;5052842;28;19975;-72
2022/01/09 05:50:31;;;;;;;;;;;3.60;99.90;;;;;;5035255;28;19944;-72
2022/01/09 05:53:03;;;;;;;;;;;3.60;99.90;;;;;;5018941;28;20063;-72
2022/01/09 05:55:35;;;;;;;;;;;3.60;99.90;;;;;;5034971;28;19921;-73
2022/01/09 05:58:01;;;;;;;;;;;3.60;99.90;;;;;;5052601;28;20434;-71
2022/01/09 06:00:33;;;;;;;;;;;3.60;99.90;;;;;;5035922;28;20020;-72
2022/01/09 06:03:00;;;;;;;;;;;3.60;99.90;;;;;;5052671;28;20015;-72
2022/01/09 06:05:31;;;;;;;;;;;3.60;99.90;;;;;;5035896;28;20381;-72
2022/01/09 06:08:03;;;;;;;;;;;3.50;99.90;;;;;;5018728;28;19920;-72
2022/01/09 06:10:30;;;;;;;;;;;3.40;99.90;;;;;;5033989;28;20012;-72
2022/01/09 06:13:02;;;;;;;;;;;3.40;99.90;;;;;;5034969;28;20019;-72
2022/01/09 06:15:33;;;;;;;;;;;3.30;99.90;;;;;;5034961;28;20007;-72
2022/01/09 06:18:00;;;;;;;;;;;3.30;99.90;;;;;;5052474;28;20356;-72
2022/01/09 06:20:32;;;;;;;;;;;3.20;99.90;;;;;;5034813;28;19921;-72
2022/01/09 06:23:03;;;;;;;;;;;3.20;99.90;;;;;;5018211;28;19921;-72
2022/01/09 06:25:35;;;;;;;;;;;3.10;99.90;;;;;;5034295;28;19927;-72
2022/01/09 06:28:02;;;;;;;;;;;3.10;99.90;;;;;;5034661;28;20015;-72
2022/01/09 06:30:33;;;;;;;;;;;2.90;99.90;;;;;;5035451;28;20511;-72
2022/01/09 06:33:05;;;;;;;;;;;2.80;99.90;;;;;;5018293;28;19971;-72
2022/01/09 06:35:46;;;;;;;;;;;2.70;99.90;;;;;;5052024;28;20031;-72
2022/01/09 06:38:14;;;;;;;;;;;2.60;99.90;;;;;;5036749;28;19925;-71
2022/01/09 06:40:42;;;;;;;;;;;2.60;99.90;;;;;;5034224;28;19927;-72
2022/01/09 06:43:14;;;;;;;;;;;2.50;99.90;;;;;;5034457;28;19927;-72
2022/01/09 06:45:43;;;;;;;;;;;2.50;99.90;;;;;;5034707;28;19921;-71
2022/01/09 06:48:09;;;;;;;;;;;2.40;99.90;;;;;;5033603;28;20364;-72
2022/01/09 06:50:36;;;;;;;;;;;2.30;99.90;;;;;;5034171;28;19927;-72
2022/01/09 06:53:08;;;;;;;;;;;2.20;99.90;;;;;;5051507;28;20007;-72
2022/01/09 06:55:43;;;;;;;;;;;2.10;99.90;;;;;;5018428;28;20016;-72
2022/01/09 06:58:10;;;;;;;;;;;2.00;99.90;;;;;;5033970;28;19975;-72
2022/01/09 07:00:38;;;;;;;;;;;2.00;99.90;;;;;;5051472;28;20292;-71
2022/01/09 07:03:13;;;;;;;;;;;2.00;99.90;;;;;;5020541;28;19946;-72
2022/01/09 07:05:39;;;;;;;;;;;2.00;99.90;;;;;;5033757;28;20337;-72
2022/01/09 07:08:13;;;;;;;;;;;2.00;99.90;;;;;;5051354;28;19928;-72
2022/01/09 07:10:44;;;;;;;;;;;2.00;99.90;;;;;;5051188;28;20008;-71
2022/01/09 07:13:11;;;;;;;;;;;2.00;99.90;;;;;;5050866;28;19920;-71
2022/01/09 07:15:39;;;;;;;;;;;2.00;99.90;;;;;;5033463;28;20301;-72
2022/01/09 07:18:11;;;;;;;;;;;2.10;99.90;;;;;;5033391;28;19920;-72
2022/01/09 07:20:43;;;;;;;;;;;2.10;99.90;;;;;;5033886;28;19925;-72
2022/01/09 07:23:14;;;;;;;;;;;2.10;99.90;;;;;;5032918;28;19921;-72
2022/01/09 07:25:46;;;;;;;;;;;2.20;99.90;;;;;;5033397;28;19920;-72
2022/01/09 07:28:18;;;;;;;;;;;2.20;99.90;;;;;;5034475;28;20400;-72
2022/01/09 07:30:49;;;;;;;;;;;2.20;99.90;;;;;;5029598;28;19931;-72
2022/01/09 07:33:16;;;;;;;;;;;2.10;99.90;;;;;;5026854;28;19968;-72
2022/01/09 07:35:43;;;;;;;;;;;2.20;99.90;;;;;;5043145;28;20019;-72
2022/01/09 07:38:14;;;;;;;;;;;2.20;99.90;;;;;;5051048;28;20019;-72
2022/01/09 07:40:47;;;;;;;;;;;2.10;99.90;;;;;;5047745;28;19929;-72
2022/01/09 07:43:13;;;;;;;;;;;2.10;99.90;;;;;;5043548;28;20012;-72
2022/01/09 07:45:40;;;;;;;;;;;2.10;99.90;;;;;;5023985;28;19920;-72
2022/01/09 07:48:07;;;;;;;;;;;2.10;99.90;;;;;;5025411;28;19921;-72
2022/01/09 07:50:34;;;;;;;;;;;2.10;99.90;;;;;;5034946;28;19920;-72
2022/01/09 07:53:05;;;;;;;;;;;2.10;99.90;;;;;;5046831;28;19927;-73
2022/01/09 07:55:37;;;;;;;;;;;2.10;99.90;;;;;;5023552;28;19927;-72
2022/01/09 07:58:09;;;;;;;;;;;2.10;99.90;;;;;;5017938;28;20286;-73
2022/01/09 08:00:43;;;;;;;;;;;2.10;99.90;;;;;;5050025;28;19931;-73
2022/01/09 08:03:13;;;;;;;;;;;2.10;99.90;;;;;;5046947;28;20016;-72
2022/01/09 08:05:45;;;;;;;;;;;2.10;99.90;;;;;;5034837;28;19932;-72
2022/01/09 08:08:13;;;;;;;;;;;2.10;99.90;;;;;;5014052;28;19928;-72
2022/01/09 08:10:45;;;;;;;;;;;2.20;99.90;;;;;;5050956;28;19970;-73
2022/01/09 08:13:12;;;;;;;;;;;2.20;99.90;;;;;;5049946;28;19930;-72
2022/01/09 08:15:44;;;;;;;;;;;2.20;99.90;;;;;;5016386;28;19920;-72
2022/01/09 08:18:16;;;;;;;;;;;2.30;99.90;;;;;;5045386;28;19921;-72
2022/01/09 08:20:47;;;;;;;;;;;2.30;99.90;;;;;;5044267;28;19928;-72
2022/01/09 08:23:17;;;;;;;;;;;2.30;99.90;;;;;;5022749;28;19921;-73
2022/01/09 08:25:46;;;;;;;;;;;2.30;99.90;;;;;;5031173;28;19921;-73
2022/01/09 08:28:12;;;;;;;;;;;2.30;99.90;;;;;;5027752;28;20039;-73
2022/01/09 08:30:40;;;;;;;;;;;2.40;99.90;;;;;;5028007;28;20047;-72
2022/01/09 08:33:06;;;;;;;;;;;2.40;99.90;;;;;;5029662;28;20437;-72
2022/01/09 08:35:33;;;;;;;;;;;2.50;99.90;;;;;;5035777;28;19920;-73
2022/01/09 08:38:00;;;;;;;;;;;2.50;99.90;;;;;;5052273;28;20019;-72
2022/01/09 08:40:26;;;;;;;;;;;2.50;99.90;;;;;;5016102;28;19921;-73
2022/01/09 08:42:53;;;;;;;;;;;2.50;99.90;;;;;;5053285;28;19943;-73
2022/01/09 08:45:20;;;;;;;;;;;2.50;99.90;;;;;;5053898;28;20023;-73
2022/01/09 08:47:55;;;;;;;;;;;2.50;99.90;;;;;;5032100;28;19935;-75
2022/01/09 08:50:24;;;;;;;;;;;2.50;99.90;;;;;;5017490;28;19948;-72
2022/01/09 08:52:57;;;;;;;;;;;2.50;99.90;;;;;;5048312;28;20036;-74
2022/01/09 08:55:24;;;;;;;;;;;2.50;99.90;;;;;;5035272;28;20008;-72
2022/01/09 08:57:58;;;;;;;;;;;2.60;99.90;;;;;;5032506;28;19985;-72
2022/01/09 09:00:31;;;;;;;;;;;2.60;99.90;;;;;;5019504;28;20303;-73
2022/01/09 09:03:04;;;;;;;;;;;2.60;99.90;;;;;;5019562;28;20385;-72
2022/01/09 09:05:31;;;;;;;;;;;2.60;99.90;;;;;;5035105;28;20008;-73
2022/01/09 09:08:03;;;;;;;;;;;2.60;99.90;;;;;;5053482;28;19921;-73
2022/01/09 09:10:36;;;;;;;;;;;2.60;99.90;;;;;;5036142;28;19920;-72
2022/01/09 09:13:08;;;;;;;;;;;2.60;99.90;;;;;;5035348;28;19921;-72
2022/01/09 09:15:36;;;;;;;;;;;2.60;99.90;;;;;;5053645;28;19974;-72
2022/01/09 09:18:03;;;;;;;;;;;2.70;99.90;;;;;;5053252;28;19928;-72
2022/01/09 09:20:30;;;;;;;;;;;2.70;99.90;;;;;;5053170;28;20464;-72
2022/01/09 09:23:01;;;;;;;;;;;2.70;99.90;;;;;;5034953;28;20321;-73
2022/01/09 09:25:29;;;;;;;;;;;2.70;99.90;;;;;;5018979;28;19927;-72
2022/01/09 09:28:01;;;;;;;;;;;2.80;99.90;;;;;;5035089;28;19924;-72
2022/01/09 09:30:32;;;;;;;;;;;2.70;99.90;;;;;;5053087;28;20015;-72
2022/01/09 09:33:05;;;;;;;;;;;2.70;99.90;;;;;;5052478;28;20453;-72
2022/01/09 09:35:37;;;;;;;;;;;2.70;99.90;;;;;;5035323;28;20023;-73
2022/01/09 09:38:09;;;;;;;;;;;2.80;99.90;;;;;;5034816;28;20007;-73
2022/01/09 09:40:35;;;;;;;;;;;2.70;99.90;;;;;;5052740;28;19921;-72
2022/01/09 09:43:02;;;;;;;;;;;2.70;99.90;;;;;;5034767;28;20015;-71
2022/01/09 09:45:29;;;;;;;;;;;2.70;99.90;;;;;;5034079;28;20348;-73
2022/01/09 09:48:01;;;;;;;;;;;2.70;99.90;;;;;;5035523;28;20000;-73
2022/01/09 09:50:32;;;;;;;;;;;2.70;99.90;;;;;;5035203;28;19924;-72
2022/01/09 09:53:01;;;;;;;;;;;2.70;99.90;;;;;;5052628;28;19928;-72
2022/01/09 09:55:29;;;;;;;;;;;2.60;99.90;;;;;;5035341;28;20019;-73
2022/01/09 09:57:56;;;;;;;;;;;2.60;99.90;;;;;;5034586;28;19921;-72
2022/01/09 10:00:28;;;;;;;;;;;2.60;99.90;;;;;;5034923;28;19921;-72
2022/01/09 10:03:01;;;;;;;;;;;2.60;99.90;;;;;;5018532;28;19931;-73
2022/01/09 10:05:33;;;;;;;;;;;2.60;99.90;;;;;;5034741;28;20350;-73
2022/01/09 10:08:06;;;;;;;;;;;2.60;99.90;;;;;;5035005;28;19921;-73
2022/01/09 10:10:38;;;;;;;;;;;2.60;99.90;;;;;;5032168;28;19920;-73
2022/01/09 10:13:13;;;;;;;;;;;2.60;99.90;;;;;;5014329;28;20015;-72
2022/01/09 10:15:49;;;;;;;;;;;2.60;99.90;;;;;;5027062;28;19924;-72
2022/01/09 10:18:34;;;;;;;;;;;2.60;99.90;;;;;;5052814;28;20024;-72
2022/01/09 10:21:07;;;;;;;;;;;2.70;99.90;;;;;;5034763;28;19963;-72
2022/01/09 10:23:34;;;;;;;;;;;2.80;99.90;;;;;;5032676;28;19921;-72
2022/01/09 10:26:11;;;;;;;;;;;2.80;99.90;;;;;;5043213;28;19960;-72
2022/01/09 10:28:38;;;;;;;;;;;2.90;99.90;;;;;;5031361;28;20103;-73
2022/01/09 10:31:14;;;;;;;;;;;3.00;99.90;;;;;;5034476;28;20317;-73
2022/01/09 10:33:40;;;;;;;;;;;3.00;99.90;;;;;;5025989;28;20360;-72
2022/01/09 10:36:30;;;;;;;;;;;3.20;99.90;;;;;;5033420;28;20448;-72
2022/01/09 10:39:11;;;;;;;;;;;3.20;99.90;;;;;;5051862;28;19920;-72
2022/01/09 10:41:51;;;;;;;;;;;3.20;99.90;;;;;;5033931;28;19921;-73
2022/01/09 10:44:27;;;;;;;;;;;3.30;99.90;;;;;;5048269;28;19929;-72
2022/01/09 10:47:02;;;;;;;;;;;3.30;99.90;;;;;;5029461;28;19921;-72
2022/01/09 10:49:35;;;;;;;;;;;3.40;99.90;;;;;;5034702;28;19921;-73
2022/01/09 10:52:13;;;;;;;;;;;3.50;99.90;;;;;;5048741;28;19920;-73
2022/01/09 10:54:41;;;;;;;;;;;3.50;99.90;;;;;;5022919;28;20366;-73
2022/01/09 10:57:18;;;;;;;;;;;3.60;99.90;;;;;;5019275;28;19921;-72
2022/01/09 10:59:50;;;;;;;;;;;3.60;99.90;;;;;;5034534;28;19935;-74
2022/01/09 11:02:17;;;;;;;;;;;3.60;99.90;;;;;;5027315;28;19920;-73
2022/01/09 11:04:49;;;;;;;;;;;3.60;99.90;;;;;;5024889;28;19927;-72
2022/01/09 11:07:21;;;;;;;;;;;3.60;99.90;;;;;;5014779;28;20411;-73
2022/01/09 11:09:56;;;;;;;;;;;3.50;99.90;;;;;;5031563;28;19927;-72
2022/01/09 11:12:24;;;;;;;;;;;3.50;99.90;;;;;;5013658;28;20345;-72
2022/01/09 11:14:58;;;;;;;;;;;3.50;99.90;;;;;;5046820;28;19921;-72
2022/01/09 11:17:31;;;;;;;;;;;3.60;99.90;;;;;;5038775;28;19943;-72
2022/01/09 11:19:59;;;;;;;;;;;3.50;99.90;;;;;;5051225;28;19951;-72
2022/01/09 11:22:31;;;;;;;;;;;3.50;99.90;;;;;;5044562;28;20441;-72
2022/01/09 11:25:18;;;;;;;;;;;3.50;99.90;;;;;;5051377;28;19927;-72
2022/01/09 11:27:57;;;;;;;;;;;3.50;99.90;;;;;;5043963;28;19921;-72
2022/01/09 11:30:44;;;;;;;;;;;3.50;99.90;;;;;;5026574;28;20476;-72
2022/01/09 11:33:36;;;;;;;;;;;3.50;99.90;;;;;;5029232;28;19931;-72
2022/01/09 11:36:11;;;;;;;;;;;3.60;99.90;;;;;;5050773;28;20400;-72
2022/01/09 11:38:45;;;;;;;;;;;3.60;99.90;;;;;;5022821;28;19928;-73
2022/01/09 11:41:19;;;;;;;;;;;3.70;99.90;;;;;;5031976;28;19927;-72
2022/01/09 11:43:53;;;;;;;;;;;3.70;99.90;;;;;;5057309;28;19931;-73
2022/01/09 11:46:20;;;;;;;;;;;3.70;99.90;;;;;;5029503;28;19978;-72
2022/01/09 11:48:50;;;;;;;;;;;3.70;99.90;;;;;;5027716;28;20216;-73
2022/01/09 11:51:18;;;;;;;;;;;3.70;99.90;;;;;;5035136;28;19920;-73
2022/01/09 11:53:55;;;;;;;;;;;3.70;99.90;;;;;;5041772;28;20397;-72
2022/01/09 11:56:46;;;;;;;;;;;3.70;99.90;;;;;;5037314;28;19961;-72
2022/01/09 11:59:29;;;;;;;;;;;3.60;99.90;;;;;;5027248;28;19971;-72
2022/01/09 12:02:02;;;;;;;;;;;3.60;99.90;;;;;;5046946;28;19952;-73
2022/01/09 12:04:41;;;;;;;;;;;3.70;99.90;;;;;;5026726;28;20019;-73
2022/01/09 12:07:26;;;;;;;;;;;3.70;99.90;;;;;;5060509;28;19920;-73
2022/01/09 12:10:01;;;;;;;;;;;3.70;99.90;;;;;;5052383;28;19943;-72
2022/01/09 12:12:34;;;;;;;;;;;3.70;99.90;;;;;;5045670;28;19928;-72
2022/01/09 12:15:08;;;;;;;;;;;3.70;99.90;;;;;;5027260;28;19921;-72
2022/01/09 12:17:40;;;;;;;;;;;3.70;99.90;;;;;;5035068;28;19927;-72
2022/01/09 12:20:13;;;;;;;;;;;3.80;99.90;;;;;;5054777;28;19979;-72
2022/01/09 12:22:50;;;;;;;;;;;3.80;99.90;;;;;;5037264;28;19920;-73
2022/01/09 12:25:28;;;;;;;;;;;3.80;99.90;;;;;;5035769;28;20397;-72
2022/01/09 12:28:02;;;;;;;;;;;3.80;99.90;;;;;;5048100;28;20106;-72
2022/01/09 12:30:36;;;;;;;;;;;3.80;99.90;;;;;;5038331;28;20014;-72
2022/01/09 12:33:35;;;;;;;;;;;3.80;99.90;;;;;;5049039;28;20351;-71
2022/01/09 12:36:11;;;;;;;;;;;3.80;99.90;;;;;;5035820;28;19920;-73
2022/01/09 12:38:44;;;;;;;;;;;3.90;99.90;;;;;;5037045;28;19925;-72
2022/01/09 12:41:16;;;;;;;;;;;3.90;99.90;;;;;;5035874;28;20018;-73
2022/01/09 12:43:49;;;;;;;;;;;3.90;99.90;;;;;;5031251;28;20023;-72
2022/01/09 12:46:17;;;;;;;;;;;3.90;99.90;;;;;;5035426;28;20019;-73
2022/01/09 12:49:12;;;;;;;;;;;4.00;99.90;;;;;;5048677;28;19921;-72
2022/01/09 12:51:46;;;;;;;;;;;4.00;99.90;;;;;;5006213;28;20399;-72
2022/01/09 12:54:19;;;;;;;;;;;4.00;99.90;;;;;;5040209;28;19927;-72
2022/01/09 12:56:48;;;;;;;;;;;4.00;99.90;;;;;;5034511;28;19979;-72
2022/01/09 12:59:20;;;;;;;;;;;3.90;99.90;;;;;;5050243;28;19967;-73
2022/01/09 13:01:47;;;;;;;;;;;3.90;99.90;;;;;;5057103;28;20007;-72
2022/01/09 13:04:21;;;;;;;;;;;3.90;99.90;;;;;;5028115;28;19943;-73
2022/01/09 13:06:49;;;;;;;;;;;3.80;99.90;;;;;;5050231;28;19927;-72
2022/01/09 13:09:24;;;;;;;;;;;3.70;99.90;;;;;;5056544;28;20031;-72
2022/01/09 13:12:03;;;;;;;;;;;3.70;99.90;;;;;;5029198;28;20433;-73
2022/01/09 13:14:36;;;;;;;;;;;3.70;99.90;;;;;;5035766;28;20300;-72
2022/01/09 13:17:07;;;;;;;;;;;3.70;99.90;;;;;;5034300;28;20308;-72
2022/01/09 13:19:35;;;;;;;;;;;3.70;99.90;;;;;;5035150;28;20007;-72
2022/01/09 13:22:06;;;;;;;;;;;3.70;99.90;;;;;;5036823;28;20393;-73
2022/01/09 13:24:38;;;;;;;;;;;3.60;99.90;;;;;;5028713;28;19921;-72
2022/01/09 13:27:11;;;;;;;;;;;3.60;99.90;;;;;;5054159;28;20304;-72
2022/01/09 13:29:53;;;;;;;;;;;3.60;99.90;;;;;;5038313;28;19929;-72
2022/01/09 13:32:21;;;;;;;;;;;3.60;99.90;;;;;;5030181;28;20804;-72
2022/01/09 13:34:48;;;;;;;;;;;3.60;99.90;;;;;;5054359;28;19967;-73
2022/01/09 13:37:16;;;;;;;;;;;3.50;99.90;;;;;;5019400;28;20003;-73
2022/01/09 13:39:59;;;;;;;;;;;3.50;99.90;;;;;;5018775;28;20301;-72
2022/01/09 13:42:30;;;;;;;;;;;3.50;99.90;;;;;;5026833;28;19921;-72
2022/01/09 13:45:05;;;;;;;;;;;3.40;99.90;;;;;;5035618;28;19924;-72
2022/01/09 13:47:41;;;;;;;;;;;3.40;99.90;;;;;;5041412;28;19920;-72
2022/01/09 13:50:15;;;;;;;;;;;3.40;99.90;;;;;;5039924;28;20301;-72
2022/01/09 13:52:41;;;;;;;;;;;3.40;99.90;;;;;;5032991;28;19924;-72
2022/01/09 13:55:15;;;;;;;;;;;3.40;99.90;;;;;;5031934;28;19928;-72
2022/01/09 13:57:52;;;;;;;;;;;3.50;99.90;;;;;;5041057;28;19924;-72
2022/01/09 14:00:26;;;;;;;;;;;3.50;99.90;;;;;;5017960;28;19975;-72
2022/01/09 14:03:00;;;;;;;;;;;3.60;99.90;;;;;;5049772;28;19927;-71
2022/01/09 14:05:43;;;;;;;;;;;3.60;99.90;;;;;;5023051;28;19921;-72
2022/01/09 14:08:12;;;;;;;;;;;3.60;99.90;;;;;;5024266;28;19967;-72
2022/01/09 14:10:45;;;;;;;;;;;3.70;99.90;;;;;;5034906;28;20388;-72
2022/01/09 14:13:16;;;;;;;;;;;3.80;99.90;;;;;;5035635;28;20312;-71
2022/01/09 14:15:44;;;;;;;;;;;3.90;99.90;;;;;;5045917;28;21936;-72
2022/01/09 14:18:24;;;;;;;;;;;4.00;99.90;;;;;;5027920;28;19927;-72
2022/01/09 14:20:51;;;;;;;;;;;4.10;99.90;;;;;;5040542;28;20396;-71
2022/01/09 14:23:30;;;;;;;;;;;4.00;99.90;;;;;;5031407;28;19931;-71
2022/01/09 14:26:13;;;;;;;;;;;4.00;99.90;;;;;;5026270;28;20357;-71
2022/01/09 14:28:45;;;;;;;;;;;3.90;99.90;;;;;;5027640;28;20601;-72
2022/01/09 14:31:18;;;;;;;;;;;3.90;99.90;;;;;;5043743;28;20432;-72
2022/01/09 14:33:49;;;;;;;;;;;3.90;99.90;;;;;;5028346;28;20010;-71
2022/01/09 14:36:22;;;;;;;;;;;3.90;99.90;;;;;;5047005;28;19929;-71
2022/01/09 14:38:55;;;;;;;;;;;4.00;99.90;;;;;;5023775;28;19921;-72
2022/01/09 14:41:26;;;;;;;;;;;4.00;99.90;;;;;;5026440;28;19927;-71
2022/01/09 14:43:53;;;;;;;;;;;4.00;99.90;;;;;;5039384;28;20541;-71
2022/01/09 14:46:20;;;;;;;;;;;3.90;99.90;;;;;;5030668;28;20008;-70
2022/01/09 14:48:47;;;;;;;;;;;3.80;99.90;;;;;;5026126;28;19921;-71
2022/01/09 14:51:20;;;;;;;;;;;3.70;99.90;;;;;;5027987;28;19928;-71
2022/01/09 14:53:52;;;;;;;;;;;3.70;99.90;;;;;;5051535;28;20347;-70